Time;durP1;ratioP1;P1;durP2;ratioP2;P2;SDS_P1;SDS_P2;PMS_P1;PMS_P2;Temp;Humidity;BMP_temperature;BMP_pressure;BME280_temperature;BME280_humidity;BME280_pressure;Samples;Min_cycle;Max_cycle;Signal;HPM_P1;HPM_P2
2024/02/25 07:11:23;;;;;;;4.95;2.78;;;;;;;;;;2083108;28;20930;-63
2024/02/25 08:14:37;;;;;;;4.18;1.58;;;;;;;;;;2084756;28;20550;-63
2024/02/25 08:15:39;;;;;;;3.22;1.50;;;;;;;;;;2078188;28;20321;-63
2024/02/25 08:16:40;;;;;;;2.47;1.38;;;;;;;;;;2072378;28;20198;-63
2024/02/25 08:22:53;;;;;;;2.38;1.20;;;;;;;;;;2103925;27;20538;-63
2024/02/25 08:24:52;;;;;;;3.15;1.60;;;;;;;;;;2099693;27;20581;-62
2024/02/25 08:25:54;;;;;;;3.15;1.10;;;;;;;;;;2083884;28;21261;-60
2024/02/25 08:27:51;;;;;;;2.00;1.40;;;;;;;;;;2083189;28;20575;-61
2024/02/25 08:29:51;;;;;;;2.72;1.20;;;;;;;;;;2089576;28;20591;-63
2024/02/25 08:31:49;;;;;;;2.58;1.20;;;;;;;;;;2082871;28;20578;-62
2024/02/25 08:32:50;;;;;;;2.30;1.27;;;;;;;;;;2087106;28;20539;-63
2024/02/25 08:33:51;;;;;;;3.40;1.20;;;;;;;;;;2083996;28;20190;-63
2024/02/25 08:34:56;;;;;;;2.40;1.30;;;;;;;;;;2078259;28;20772;-62
2024/02/25 08:35:57;;;;;;;2.55;1.08;;;;;;;;;;2074343;28;21016;-65
2024/02/25 08:37:10;;;;;;;3.03;1.40;;;;;;;;;;2074022;28;20185;-64
2024/02/25 08:38:34;;;;;;;4.15;1.50;;;;;;;;;;2074649;28;20240;-65
2024/02/25 08:39:40;;;;;;;2.75;1.40;;;;;;;;;;2073635;28;20809;-63
2024/02/25 08:41:07;;;;;;;2.78;1.23;;;;;;;;;;2060119;28;20228;-65
2024/02/25 08:42:18;;;;;;;2.15;1.02;;;;;;;;;;2067558;28;20199;-66
2024/02/25 08:43:20;;;;;;;1.95;1.10;;;;;;;;;;2072107;28;20612;-63
2024/02/25 08:44:21;;;;;;;1.60;1.00;;;;;;;;;;2067898;28;20551;-63
2024/02/25 08:45:23;;;;;;;3.50;1.00;;;;;;;;;;2072977;28;20201;-64
2024/02/25 08:46:24;;;;;;;1.98;1.13;;;;;;;;;;2079143;28;20190;-63
2024/02/25 08:47:26;;;;;;;4.55;1.15;;;;;;;;;;2079262;28;20209;-63
2024/02/25 08:48:27;;;;;;;2.22;1.27;;;;;;;;;;2070157;28;20633;-63
2024/02/25 08:49:29;;;;;;;2.00;0.90;;;;;;;;;;2071742;28;20730;-63
2024/02/25 08:50:30;;;;;;;3.00;1.15;;;;;;;;;;2071171;28;20200;-65
2024/02/25 08:51:32;;;;;;;2.03;1.00;;;;;;;;;;2072255;28;20212;-63
2024/02/25 08:52:33;;;;;;;2.28;1.00;;;;;;;;;;2071961;28;20279;-63
2024/02/25 08:53:34;;;;;;;2.00;1.10;;;;;;;;;;2070850;28;20199;-64
2024/02/25 08:54:37;;;;;;;3.05;1.00;;;;;;;;;;2067172;28;20203;-63
2024/02/25 08:55:38;;;;;;;1.60;1.00;;;;;;;;;;2054487;28;20278;-66
2024/02/25 08:56:39;;;;;;;3.75;0.90;;;;;;;;;;2066182;28;20206;-64
2024/02/25 08:57:41;;;;;;;1.95;0.93;;;;;;;;;;2069322;28;20202;-64
2024/02/25 08:58:43;;;;;;;1.92;0.95;;;;;;;;;;2073489;28;20196;-64
2024/02/25 08:59:45;;;;;;;2.63;0.95;;;;;;;;;;2075344;28;20204;-64
2024/02/25 09:00:47;;;;;;;1.40;0.90;;;;;;;;;;2075364;28;20283;-64
2024/02/25 09:01:48;;;;;;;3.30;1.00;;;;;;;;;;2083328;28;20594;-64
2024/02/25 09:02:50;;;;;;;2.72;1.10;;;;;;;;;;2074622;28;20229;-64
2024/02/25 09:03:51;;;;;;;1.90;0.85;;;;;;;;;;2066484;28;20282;-64
2024/02/25 09:04:55;;;;;;;2.53;1.10;;;;;;;;;;2073106;28;20841;-64
2024/02/25 09:05:57;;;;;;;2.00;0.95;;;;;;;;;;2072182;28;20222;-64
2024/02/25 09:06:59;;;;;;;3.45;1.00;;;;;;;;;;2070360;28;20197;-64
2024/02/25 09:08:01;;;;;;;1.63;0.70;;;;;;;;;;2070763;28;20203;-64
2024/02/25 09:09:02;;;;;;;1.67;0.80;;;;;;;;;;2074357;28;20234;-64
2024/02/25 09:10:05;;;;;;;3.67;1.88;;;;;;;;;;2074591;28;20210;-62
2024/02/25 09:11:08;;;;;;;3.35;0.93;;;;;;;;;;2068446;28;20230;-63
2024/02/25 09:12:13;;;;;;;2.15;1.08;;;;;;;;;;2071260;28;20224;-61
2024/02/25 09:13:14;;;;;;;1.90;1.13;;;;;;;;;;2073094;28;20201;-64
2024/02/25 09:14:16;;;;;;;1.45;0.80;;;;;;;;;;2067409;28;20222;-63
2024/02/25 09:15:19;;;;;;;4.32;1.00;;;;;;;;;;2071882;28;20671;-64
2024/02/25 09:16:21;;;;;;;1.42;0.80;;;;;;;;;;2072719;28;20297;-64
2024/02/25 09:17:23;;;;;;;1.40;0.80;;;;;;;;;;2070736;28;20199;-64
2024/02/25 09:18:24;;;;;;;2.42;0.90;;;;;;;;;;2069271;28;20642;-64
2024/02/25 09:19:26;;;;;;;3.17;0.95;;;;;;;;;;2070801;28;20202;-63
2024/02/25 09:20:30;;;;;;;1.67;0.70;;;;;;;;;;2074438;28;20379;-63
2024/02/25 09:21:31;;;;;;;1.63;0.73;;;;;;;;;;2076345;28;20214;-64
2024/02/25 09:22:33;;;;;;;2.13;1.00;;;;;;;;;;2071205;28;20206;-64
2024/02/25 09:23:34;;;;;;;3.05;0.80;;;;;;;;;;2073259;28;20252;-64
2024/02/25 09:24:35;;;;;;;4.85;3.25;;;;;;;;;;2073590;28;20208;-63
2024/02/25 09:25:37;;;;;;;2.78;0.90;;;;;;;;;;2070527;28;20310;-63
2024/02/25 09:26:41;;;;;;;1.83;0.70;;;;;;;;;;2066397;28;20650;-64
2024/02/25 09:27:43;;;;;;;1.85;0.80;;;;;;;;;;2072199;28;20225;-64
2024/02/25 09:28:44;;;;;;;1.77;0.90;;;;;;;;;;2072039;28;20697;-70
2024/02/25 09:29:46;;;;;;;2.05;0.70;;;;;;;;;;2072107;28;20600;-64
2024/02/25 09:30:47;;;;;;;1.92;0.88;;;;;;;;;;2071308;28;20577;-64
2024/02/25 09:31:49;;;;;;;2.63;1.30;;;;;;;;;;2071090;28;20609;-64
2024/02/25 09:32:50;;;;;;;1.98;0.80;;;;;;;;;;2069974;28;20743;-63
2024/02/25 09:33:54;;;;;;;2.20;0.90;;;;;;;;;;2070939;28;21107;-63
2024/02/25 09:34:56;;;;;;;3.80;0.90;;;;;;;;;;2069602;28;20206;-63
2024/02/25 09:35:58;;;;;;;3.72;1.00;;;;;;;;;;2071951;28;20277;-63
2024/02/25 09:36:59;;;;;;;1.42;0.70;;;;;;;;;;2070274;28;20233;-64
2024/02/25 09:38:00;;;;;;;3.47;1.15;;;;;;;;;;2067765;28;20833;-63
2024/02/25 09:39:03;;;;;;;3.05;0.77;;;;;;;;;;2071714;28;20197;-63
2024/02/25 09:40:07;;;;;;;1.27;0.60;;;;;;;;;;2070068;28;20236;-64
2024/02/25 09:41:09;;;;;;;3.13;1.00;;;;;;;;;;2069325;28;20585;-64
2024/02/25 09:42:10;;;;;;;1.70;0.70;;;;;;;;;;2072154;28;20697;-64
2024/02/25 09:43:13;;;;;;;2.22;0.88;;;;;;;;;;2065929;28;20210;-64
2024/02/25 09:44:21;;;;;;;1.20;0.60;;;;;;;;;;2065116;28;20202;-64
2024/02/25 09:45:22;;;;;;;3.00;0.70;;;;;;;;;;2064374;28;20288;-64
2024/02/25 09:46:24;;;;;;;2.20;0.80;;;;;;;;;;2066395;28;20716;-65
2024/02/25 09:47:26;;;;;;;3.67;0.70;;;;;;;;;;2062775;28;20253;-64
2024/02/25 09:48:27;;;;;;;2.75;0.73;;;;;;;;;;2066408;28;20203;-64
2024/02/25 09:49:30;;;;;;;1.17;0.63;;;;;;;;;;2066464;28;20194;-63
2024/02/25 09:50:33;;;;;;;2.47;0.80;;;;;;;;;;2064122;28;20210;-64
2024/02/25 09:51:35;;;;;;;1.92;0.80;;;;;;;;;;2067394;28;20194;-64
2024/02/25 09:52:37;;;;;;;1.92;0.73;;;;;;;;;;2063105;28;20307;-64
2024/02/25 09:53:39;;;;;;;1.40;0.70;;;;;;;;;;2068698;28;20230;-65
2024/02/25 09:54:40;;;;;;;1.88;0.80;;;;;;;;;;2072739;28;20225;-70
2024/02/25 09:55:45;;;;;;;1.95;0.80;;;;;;;;;;2060224;28;20237;-70
2024/02/25 09:56:49;;;;;;;2.05;0.68;;;;;;;;;;2060921;28;20717;-70
2024/02/25 09:57:51;;;;;;;2.20;0.70;;;;;;;;;;2062678;28;20564;-70
2024/02/25 09:58:52;;;;;;;1.30;0.73;;;;;;;;;;2070439;28;20198;-70
2024/02/25 09:59:54;;;;;;;2.10;1.00;;;;;;;;;;2071233;28;20229;-70
2024/02/25 10:00:55;;;;;;;3.47;0.63;;;;;;;;;;2063721;28;20229;-70
2024/02/25 10:01:57;;;;;;;1.35;0.60;;;;;;;;;;2065355;28;20228;-70
2024/02/25 10:02:59;;;;;;;1.55;0.70;;;;;;;;;;2066418;28;20195;-71
2024/02/25 10:04:00;;;;;;;1.63;0.80;;;;;;;;;;2064629;28;20689;-70
2024/02/25 10:05:05;;;;;;;2.13;0.73;;;;;;;;;;2066330;28;20217;-70
2024/02/25 10:06:07;;;;;;;2.25;0.60;;;;;;;;;;2064916;28;20745;-70
2024/02/25 10:07:12;;;;;;;1.33;0.60;;;;;;;;;;2065145;28;20896;-70
2024/02/25 10:08:14;;;;;;;4.05;0.80;;;;;;;;;;2063714;28;20203;-70
2024/02/25 10:09:26;;;;;;;4.13;0.70;;;;;;;;;;2066830;28;20847;-70
2024/02/25 10:10:30;;;;;;;1.83;0.60;;;;;;;;;;2054190;28;20209;-70
2024/02/25 10:11:34;;;;;;;1.60;0.70;;;;;;;;;;2061668;28;20210;-70
2024/02/25 10:12:39;;;;;;;1.45;0.70;;;;;;;;;;2061766;28;20215;-69
2024/02/25 10:13:42;;;;;;;3.65;1.00;;;;;;;;;;2065286;28;20745;-70
2024/02/25 10:14:51;;;;;;;1.77;0.70;;;;;;;;;;2065970;28;20217;-68
2024/02/25 10:15:59;;;;;;;1.60;0.80;;;;;;;;;;2063707;28;20250;-68
2024/02/25 10:17:04;;;;;;;2.65;0.85;;;;;;;;;;2062135;28;20200;-67
2024/02/25 10:18:06;;;;;;;1.65;0.68;;;;;;;;;;2065484;28;20279;-67
2024/02/25 10:19:08;;;;;;;1.30;0.70;;;;;;;;;;2064767;28;20230;-68
2024/02/25 10:20:11;;;;;;;2.00;0.80;;;;;;;;;;2066020;28;20198;-67
2024/02/25 10:21:13;;;;;;;1.25;0.73;;;;;;;;;;2066604;28;20218;-67
2024/02/25 10:22:14;;;;;;;3.28;0.95;;;;;;;;;;2066230;28;20299;-68
2024/02/25 10:23:16;;;;;;;1.52;0.70;;;;;;;;;;2066869;28;20210;-62
2024/02/25 10:24:28;;;;;;;1.48;0.80;;;;;;;;;;2065951;28;20273;-62
2024/02/25 10:25:29;;;;;;;1.70;0.80;;;;;;;;;;2063452;28;20199;-62
2024/02/25 10:26:32;;;;;;;2.20;0.80;;;;;;;;;;2066013;28;20198;-62
2024/02/25 10:27:33;;;;;;;1.95;0.70;;;;;;;;;;2065306;28;20238;-62
2024/02/25 10:28:35;;;;;;;2.55;1.00;;;;;;;;;;2066986;28;20202;-62
2024/02/25 10:29:52;;;;;;;2.72;0.93;;;;;;;;;;2069295;28;20210;-62
2024/02/25 10:30:58;;;;;;;4.07;0.93;;;;;;;;;;2068489;28;20724;-62
2024/02/25 10:32:00;;;;;;;3.10;1.20;;;;;;;;;;2063210;28;20194;-62
2024/02/25 10:33:22;;;;;;;8.38;1.00;;;;;;;;;;2063568;28;20194;-63
2024/02/25 10:34:23;;;;;;;2.00;0.95;;;;;;;;;;2064457;28;20198;-63
2024/02/25 10:35:29;;;;;;;2.30;0.85;;;;;;;;;;2061324;28;20264;-62
2024/02/25 10:36:32;;;;;;;1.60;0.80;;;;;;;;;;2064276;28;20282;-62
2024/02/25 10:37:33;;;;;;;1.92;0.70;;;;;;;;;;2062983;28;20796;-63
2024/02/25 10:38:36;;;;;;;1.92;0.77;;;;;;;;;;2068466;28;20196;-63
2024/02/25 10:39:37;;;;;;;3.28;0.70;;;;;;;;;;2063379;28;20784;-62
2024/02/25 10:40:39;;;;;;;1.58;0.80;;;;;;;;;;2063090;28;20249;-62
2024/02/25 10:41:41;;;;;;;1.35;0.60;;;;;;;;;;2063024;28;20302;-62
2024/02/25 10:42:46;;;;;;;1.80;0.63;;;;;;;;;;2060533;28;20229;-62
2024/02/25 10:43:54;;;;;;;1.73;0.70;;;;;;;;;;2059920;28;20203;-62
2024/02/25 10:44:56;;;;;;;2.30;0.75;;;;;;;;;;2061504;28;20273;-64
2024/02/25 10:45:59;;;;;;;1.20;0.60;;;;;;;;;;2060194;28;20224;-63
2024/02/25 10:47:03;;;;;;;1.98;0.80;;;;;;;;;;2062990;28;20196;-62
2024/02/25 10:48:05;;;;;;;2.38;0.80;;;;;;;;;;2063925;28;20345;-62
2024/02/25 10:49:07;;;;;;;2.30;0.60;;;;;;;;;;2062235;28;20206;-63
2024/02/25 10:50:09;;;;;;;1.20;0.60;;;;;;;;;;2064752;28;20654;-62
2024/02/25 10:51:11;;;;;;;1.70;0.70;;;;;;;;;;2063196;28;20457;-62
2024/02/25 10:52:16;;;;;;;1.23;0.70;;;;;;;;;;2065430;28;20196;-63
2024/02/25 10:53:20;;;;;;;1.70;0.70;;;;;;;;;;2064623;28;20298;-63
2024/02/25 10:54:22;;;;;;;1.15;0.57;;;;;;;;;;2065334;28;20237;-62
2024/02/25 10:55:24;;;;;;;3.05;0.70;;;;;;;;;;2059967;28;20191;-62
2024/02/25 10:56:25;;;;;;;2.00;0.77;;;;;;;;;;2061041;28;20540;-62
2024/02/25 10:57:27;;;;;;;1.80;0.70;;;;;;;;;;2063645;28;20212;-63
2024/02/25 10:58:29;;;;;;;1.73;0.70;;;;;;;;;;2063684;28;20924;-63
2024/02/25 10:59:31;;;;;;;1.73;0.70;;;;;;;;;;2064507;28;20580;-63
2024/02/25 11:00:32;;;;;;;1.25;0.65;;;;;;;;;;2064947;28;20205;-67
2024/02/25 11:01:38;;;;;;;4.50;0.70;;;;;;;;;;2064149;28;20208;-66
2024/02/25 11:02:40;;;;;;;1.48;0.60;;;;;;;;;;2063409;28;20257;-67
2024/02/25 11:03:42;;;;;;;1.70;0.70;;;;;;;;;;2063399;28;20206;-67
2024/02/25 11:04:45;;;;;;;1.45;0.60;;;;;;;;;;2064829;28;20256;-66
2024/02/25 11:05:47;;;;;;;1.33;0.60;;;;;;;;;;2063719;28;20230;-67
2024/02/25 11:06:49;;;;;;;1.20;0.60;;;;;;;;;;2063584;28;20218;-67
2024/02/25 11:07:51;;;;;;;1.20;0.68;;;;;;;;;;2065554;28;20547;-66
2024/02/25 11:08:55;;;;;;;1.10;0.60;;;;;;;;;;2068469;28;20331;-66
2024/02/25 11:09:58;;;;;;;1.70;0.70;;;;;;;;;;2065289;28;20229;-67
2024/02/25 11:10:59;;;;;;;1.40;0.70;;;;;;;;;;2063319;28;20246;-67
2024/02/25 11:12:20;;;;;;;1.15;0.60;;;;;;;;;;2063521;28;20208;-66
2024/02/25 11:13:22;;;;;;;1.10;0.60;;;;;;;;;;2062919;28;20248;-67
2024/02/25 11:14:25;;;;;;;1.45;0.60;;;;;;;;;;2064320;28;20199;-67
2024/02/25 11:15:28;;;;;;;1.80;0.70;;;;;;;;;;2064378;28;20206;-67
2024/02/25 11:16:30;;;;;;;3.25;0.70;;;;;;;;;;2066392;28;20269;-67
2024/02/25 11:17:35;;;;;;;1.40;0.65;;;;;;;;;;2065576;28;20206;-66
2024/02/25 11:18:43;;;;;;;1.33;0.63;;;;;;;;;;2064619;28;20201;-66
2024/02/25 11:20:04;;;;;;;2.30;0.80;;;;;;;;;;2065729;28;20206;-67
2024/02/25 11:21:09;;;;;;;1.65;0.60;;;;;;;;;;2066220;28;20238;-66
2024/02/25 11:22:10;;;;;;;1.23;0.60;;;;;;;;;;2066960;28;20195;-66
2024/02/25 11:23:16;;;;;;;1.20;0.70;;;;;;;;;;2064883;28;20196;-67
2024/02/25 11:24:38;;;;;;;1.00;0.50;;;;;;;;;;2066465;28;20251;-67
2024/02/25 11:25:40;;;;;;;1.10;0.50;;;;;;;;;;2063707;28;20201;-67
2024/02/25 11:26:45;;;;;;;1.00;0.60;;;;;;;;;;2063705;28;20382;-66
2024/02/25 11:28:00;;;;;;;1.55;0.63;;;;;;;;;;2062201;28;20278;-67
2024/02/25 11:29:21;;;;;;;1.20;0.60;;;;;;;;;;2060888;28;20630;-67
2024/02/25 11:30:22;;;;;;;1.40;0.50;;;;;;;;;;2073247;28;20197;-67
2024/02/25 11:31:42;;;;;;;1.20;0.70;;;;;;;;;;2072127;28;20368;-67
2024/02/25 11:32:44;;;;;;;2.67;0.70;;;;;;;;;;2065516;28;20219;-67
2024/02/25 11:33:50;;;;;;;1.10;0.60;;;;;;;;;;2064199;28;20188;-67
2024/02/25 11:34:57;;;;;;;1.50;0.70;;;;;;;;;;2063006;28;20677;-67
2024/02/25 11:36:00;;;;;;;2.15;0.70;;;;;;;;;;2060207;28;20221;-67
2024/02/25 11:37:03;;;;;;;1.75;0.70;;;;;;;;;;2060455;28;20199;-67
2024/02/25 11:38:07;;;;;;;1.40;0.90;;;;;;;;;;2061295;28;20196;-67
2024/02/25 11:39:08;;;;;;;4.72;2.00;;;;;;;;;;2061750;28;20200;-68
2024/02/25 11:40:10;;;;;;;25.83;9.13;;;;;;;;;;2060407;28;20208;-67
2024/02/25 11:41:12;;;;;;;12.68;4.78;;;;;;;;;;2060372;28;20315;-67
2024/02/25 11:42:14;;;;;;;1.77;0.80;;;;;;;;;;2063772;28;20204;-67
2024/02/25 11:43:16;;;;;;;2.60;0.70;;;;;;;;;;2068125;28;20210;-67
2024/02/25 11:44:17;;;;;;;1.25;0.60;;;;;;;;;;2067479;28;20204;-67
2024/02/25 11:45:19;;;;;;;2.00;0.70;;;;;;;;;;2061940;28;20291;-67
2024/02/25 11:46:20;;;;;;;1.52;0.60;;;;;;;;;;2060360;28;20222;-67
2024/02/25 11:47:21;;;;;;;3.83;0.70;;;;;;;;;;2063939;28;20192;-67
2024/02/25 11:48:23;;;;;;;1.40;0.70;;;;;;;;;;2066434;28;20208;-67
2024/02/25 11:49:25;;;;;;;3.10;0.80;;;;;;;;;;2062251;28;20199;-67
2024/02/25 11:50:27;;;;;;;1.58;0.60;;;;;;;;;;2060218;28;20231;-67
2024/02/25 11:51:28;;;;;;;3.28;1.25;;;;;;;;;;2064993;28;20200;-66
2024/02/25 11:52:29;;;;;;;1.20;0.60;;;;;;;;;;2065285;28;20192;-67
2024/02/25 11:53:31;;;;;;;1.55;0.75;;;;;;;;;;2066990;28;20211;-67
2024/02/25 11:54:33;;;;;;;1.00;0.50;;;;;;;;;;2065895;28;20741;-67
2024/02/25 11:55:35;;;;;;;1.90;0.70;;;;;;;;;;2061564;28;20260;-68
2024/02/25 11:56:36;;;;;;;1.60;0.70;;;;;;;;;;2066148;28;20617;-63
2024/02/25 11:57:40;;;;;;;1.60;0.60;;;;;;;;;;2060476;28;20284;-62
2024/02/25 11:58:41;;;;;;;3.47;0.70;;;;;;;;;;2062733;28;20643;-63
2024/02/25 11:59:43;;;;;;;1.45;0.70;;;;;;;;;;2065505;28;20247;-63
2024/02/25 12:00:45;;;;;;;1.20;0.60;;;;;;;;;;2064151;28;20299;-62
2024/02/25 12:01:47;;;;;;;1.45;0.70;;;;;;;;;;2063000;28;20562;-62
2024/02/25 12:02:49;;;;;;;1.40;0.60;;;;;;;;;;2068276;28;20554;-62
2024/02/25 12:03:50;;;;;;;1.20;0.65;;;;;;;;;;2064975;28;20192;-63
2024/02/25 12:04:55;;;;;;;2.35;0.77;;;;;;;;;;2063373;28;20275;-62
2024/02/25 12:05:57;;;;;;;1.10;0.60;;;;;;;;;;2061385;28;20214;-62
2024/02/25 12:06:59;;;;;;;3.17;1.00;;;;;;;;;;2066093;28;20276;-63
2024/02/25 12:08:02;;;;;;;2.28;0.90;;;;;;;;;;2063857;28;20282;-62
2024/02/25 12:09:05;;;;;;;1.15;0.60;;;;;;;;;;2061927;28;20199;-65
2024/02/25 12:10:07;;;;;;;1.23;0.60;;;;;;;;;;2060895;28;20202;-63
2024/02/25 12:11:09;;;;;;;1.20;0.60;;;;;;;;;;2066017;28;20220;-63
2024/02/25 12:12:11;;;;;;;1.73;0.60;;;;;;;;;;2063730;28;20193;-63
2024/02/25 12:13:12;;;;;;;1.10;0.50;;;;;;;;;;2062739;28;20207;-62
2024/02/25 12:14:14;;;;;;;3.45;0.70;;;;;;;;;;2067844;28;20227;-63
2024/02/25 12:15:15;;;;;;;1.10;0.50;;;;;;;;;;2067264;28;20339;-62
2024/02/25 12:16:17;;;;;;;1.35;0.60;;;;;;;;;;2065052;28;20223;-63
2024/02/25 12:17:19;;;;;;;3.28;0.75;;;;;;;;;;2063582;28;20226;-63
2024/02/25 12:18:20;;;;;;;1.30;0.60;;;;;;;;;;2062994;28;20194;-63
2024/02/25 12:19:22;;;;;;;1.20;0.60;;;;;;;;;;2060520;28;20200;-63
2024/02/25 12:20:24;;;;;;;2.30;1.08;;;;;;;;;;2064052;28;20233;-63
2024/02/25 12:21:26;;;;;;;1.52;0.70;;;;;;;;;;2061815;28;20205;-63
2024/02/25 12:22:29;;;;;;;1.40;0.60;;;;;;;;;;2063614;28;20615;-63
2024/02/25 12:23:30;;;;;;;2.10;0.63;;;;;;;;;;2062349;28;20649;-63
2024/02/25 12:24:34;;;;;;;1.73;0.75;;;;;;;;;;2065256;28;20198;-62
2024/02/25 12:25:36;;;;;;;1.33;0.60;;;;;;;;;;2062457;28;20195;-63
2024/02/25 12:26:52;;;;;;;1.17;0.60;;;;;;;;;;2063962;28;20259;-63
2024/02/25 12:28:05;;;;;;;1.48;0.60;;;;;;;;;;2058134;28;20642;-63
2024/02/25 12:29:07;;;;;;;1.30;0.60;;;;;;;;;;2059196;28;20680;-63
2024/02/25 12:30:12;;;;;;;1.63;0.55;;;;;;;;;;2065613;28;20231;-63
2024/02/25 12:31:14;;;;;;;1.95;0.57;;;;;;;;;;2062912;28;20325;-63
2024/02/25 12:32:15;;;;;;;1.23;0.50;;;;;;;;;;2065155;28;20206;-62
2024/02/25 12:33:17;;;;;;;1.33;0.60;;;;;;;;;;2064609;28;20260;-63
2024/02/25 12:34:19;;;;;;;1.30;0.70;;;;;;;;;;2062806;28;20205;-63
2024/02/25 12:35:22;;;;;;;1.20;0.50;;;;;;;;;;2064401;28;20202;-66
2024/02/25 12:36:23;;;;;;;1.10;0.60;;;;;;;;;;2062731;28;20680;-67
2024/02/25 12:37:26;;;;;;;1.27;0.60;;;;;;;;;;2064441;28;20285;-67
2024/02/25 12:38:27;;;;;;;2.00;0.80;;;;;;;;;;2065917;28;20202;-67
2024/02/25 12:39:28;;;;;;;2.10;0.80;;;;;;;;;;2063257;28;20673;-67
2024/02/25 12:40:33;;;;;;;1.10;0.60;;;;;;;;;;2042553;28;20384;-66
2024/02/25 12:41:34;;;;;;;1.00;0.50;;;;;;;;;;2064740;28;20194;-68
2024/02/25 12:42:40;;;;;;;5.32;0.60;;;;;;;;;;2064722;28;20196;-68
2024/02/25 12:43:51;;;;;;;1.00;0.60;;;;;;;;;;2065418;28;20240;-67
2024/02/25 12:44:52;;;;;;;1.58;0.70;;;;;;;;;;2064627;28;20609;-67
2024/02/25 12:45:54;;;;;;;1.10;0.50;;;;;;;;;;2062510;28;20219;-67
2024/02/25 12:46:55;;;;;;;1.40;0.50;;;;;;;;;;2062679;28;20257;-67
2024/02/25 12:47:57;;;;;;;2.60;0.60;;;;;;;;;;2065425;28;20261;-67
2024/02/25 12:49:07;;;;;;;1.30;0.60;;;;;;;;;;2064211;28;20214;-67
2024/02/25 12:50:11;;;;;;;3.47;0.60;;;;;;;;;;2063923;28;20205;-67
2024/02/25 12:51:17;;;;;;;1.40;0.60;;;;;;;;;;2046832;28;20230;-67
2024/02/25 12:52:19;;;;;;;1.25;0.63;;;;;;;;;;2064232;28;20207;-67
2024/02/25 12:53:20;;;;;;;2.35;0.70;;;;;;;;;;2064304;28;20344;-67
2024/02/25 12:54:22;;;;;;;3.58;0.60;;;;;;;;;;2065545;28;20282;-67
2024/02/25 12:55:23;;;;;;;1.83;0.80;;;;;;;;;;2066748;28;20237;-67
2024/02/25 12:56:24;;;;;;;1.75;0.70;;;;;;;;;;2059992;28;20230;-67
2024/02/25 12:57:26;;;;;;;1.75;0.70;;;;;;;;;;2059344;28;20207;-67
2024/02/25 12:58:28;;;;;;;2.20;0.70;;;;;;;;;;2061615;28;20195;-67
2024/02/25 12:59:32;;;;;;;1.45;0.70;;;;;;;;;;2061399;28;20203;-67
2024/02/25 13:00:33;;;;;;;4.63;0.80;;;;;;;;;;2059425;28;20202;-67
2024/02/25 13:01:35;;;;;;;1.30;0.60;;;;;;;;;;2062522;28;20294;-67
2024/02/25 13:02:37;;;;;;;1.25;0.60;;;;;;;;;;2063563;28;20200;-67
2024/02/25 13:03:38;;;;;;;1.40;0.60;;;;;;;;;;2061751;28;20602;-68
2024/02/25 13:04:40;;;;;;;2.45;0.70;;;;;;;;;;2064093;28;20199;-67
2024/02/25 13:05:42;;;;;;;2.20;0.60;;;;;;;;;;2059135;28;20197;-67
2024/02/25 13:06:43;;;;;;;1.90;0.70;;;;;;;;;;2065995;28;20207;-67
2024/02/25 13:07:50;;;;;;;2.47;0.70;;;;;;;;;;2065789;28;20198;-67
2024/02/25 13:08:51;;;;;;;1.90;0.75;;;;;;;;;;2065072;28;20198;-67
2024/02/25 13:09:53;;;;;;;3.60;0.90;;;;;;;;;;2064280;28;20260;-68
2024/02/25 13:10:54;;;;;;;2.38;0.80;;;;;;;;;;2063404;28;20219;-62
2024/02/25 13:11:56;;;;;;;1.80;0.60;;;;;;;;;;2065399;28;20209;-62
2024/02/25 13:12:57;;;;;;;1.50;0.80;;;;;;;;;;2065813;28;20211;-66
2024/02/25 13:13:58;;;;;;;1.27;0.63;;;;;;;;;;2064130;28;20307;-66
2024/02/25 13:15:03;;;;;;;2.30;0.70;;;;;;;;;;2058980;28;20555;-67
2024/02/25 13:16:05;;;;;;;2.40;0.80;;;;;;;;;;2062311;28;20218;-67
2024/02/25 13:17:08;;;;;;;1.75;0.80;;;;;;;;;;2065132;28;20263;-66
2024/02/25 13:18:11;;;;;;;1.85;0.90;;;;;;;;;;2058227;28;20199;-66
2024/02/25 13:19:12;;;;;;;1.30;0.70;;;;;;;;;;2064884;28;20203;-67
2024/02/25 13:20:14;;;;;;;2.28;0.70;;;;;;;;;;2068860;28;20255;-67
2024/02/25 13:21:16;;;;;;;2.38;0.80;;;;;;;;;;2067741;28;20231;-67
2024/02/25 13:22:17;;;;;;;2.25;0.70;;;;;;;;;;2062233;28;20202;-67
2024/02/25 13:23:19;;;;;;;4.40;0.95;;;;;;;;;;2066120;28;20195;-67
2024/02/25 13:24:20;;;;;;;2.15;0.60;;;;;;;;;;2063955;28;20702;-67
2024/02/25 13:25:21;;;;;;;1.63;0.60;;;;;;;;;;2066590;28;20199;-67
2024/02/25 13:26:23;;;;;;;1.67;0.68;;;;;;;;;;2068537;28;20283;-67
2024/02/25 13:27:24;;;;;;;1.42;0.70;;;;;;;;;;2065246;28;20194;-67
2024/02/25 13:28:26;;;;;;;2.85;0.70;;;;;;;;;;2062156;28;20199;-68
2024/02/25 13:29:27;;;;;;;1.75;0.70;;;;;;;;;;2068601;28;20199;-63
2024/02/25 13:30:29;;;;;;;1.50;0.77;;;;;;;;;;2057556;28;20659;-62
2024/02/25 13:31:31;;;;;;;1.25;0.70;;;;;;;;;;2068321;28;20757;-62
2024/02/25 13:32:32;;;;;;;2.35;0.60;;;;;;;;;;2067731;28;20203;-67
2024/02/25 13:33:34;;;;;;;1.67;0.73;;;;;;;;;;2069410;28;20194;-62
2024/02/25 13:34:35;;;;;;;3.33;0.75;;;;;;;;;;2069307;28;20245;-63
2024/02/25 13:35:38;;;;;;;1.58;0.90;;;;;;;;;;2066306;28;20206;-62
2024/02/25 13:36:41;;;;;;;1.70;0.80;;;;;;;;;;2062801;28;20206;-62
2024/02/25 13:37:42;;;;;;;2.00;0.75;;;;;;;;;;2065916;28;20680;-63
2024/02/25 13:38:45;;;;;;;1.55;1.08;;;;;;;;;;2063113;28;20439;-62
2024/02/25 13:39:46;;;;;;;2.28;0.90;;;;;;;;;;2065007;28;20236;-62
2024/02/25 13:40:48;;;;;;;2.90;0.77;;;;;;;;;;2062360;28;20323;-63
2024/02/25 13:41:50;;;;;;;1.17;0.60;;;;;;;;;;2062154;28;20250;-62
2024/02/25 13:42:51;;;;;;;1.50;0.70;;;;;;;;;;2066179;28;20203;-62
2024/02/25 13:43:52;;;;;;;1.15;0.65;;;;;;;;;;2063676;28;20200;-62
2024/02/25 13:44:54;;;;;;;1.42;0.80;;;;;;;;;;2063486;28;20327;-62
2024/02/25 13:45:56;;;;;;;1.30;0.80;;;;;;;;;;2066853;28;20268;-62
2024/02/25 13:46:57;;;;;;;2.08;0.98;;;;;;;;;;2068872;28;20198;-63
2024/02/25 13:48:00;;;;;;;1.33;0.60;;;;;;;;;;2067189;28;20207;-62
2024/02/25 13:49:02;;;;;;;3.25;0.60;;;;;;;;;;2064210;28;20366;-62
2024/02/25 13:50:05;;;;;;;2.85;0.93;;;;;;;;;;2063449;28;20212;-62
2024/02/25 13:51:07;;;;;;;1.50;0.70;;;;;;;;;;2062051;28;20227;-62
2024/02/25 13:52:09;;;;;;;2.95;0.70;;;;;;;;;;2065858;28;20284;-62
2024/02/25 13:53:11;;;;;;;1.70;0.77;;;;;;;;;;2053718;28;20202;-63
2024/02/25 13:54:16;;;;;;;1.95;0.70;;;;;;;;;;2059742;28;20217;-62
2024/02/25 13:55:18;;;;;;;1.30;0.70;;;;;;;;;;2063596;28;20752;-62
2024/02/25 13:56:19;;;;;;;3.28;0.85;;;;;;;;;;2061587;28;20247;-61
2024/02/25 13:57:21;;;;;;;1.52;0.88;;;;;;;;;;2062353;28;20187;-63
2024/02/25 13:58:22;;;;;;;1.20;0.60;;;;;;;;;;2063334;28;20226;-64
2024/02/25 13:59:24;;;;;;;1.50;0.70;;;;;;;;;;2062494;28;20250;-64
2024/02/25 14:00:25;;;;;;;1.10;0.60;;;;;;;;;;2066141;28;20713;-64
2024/02/25 14:01:26;;;;;;;1.42;0.68;;;;;;;;;;2060206;28;20911;-64
2024/02/25 14:02:28;;;;;;;1.20;0.60;;;;;;;;;;2067673;28;20195;-63
2024/02/25 14:03:30;;;;;;;1.42;0.60;;;;;;;;;;2065425;28;20254;-63
2024/02/25 14:04:33;;;;;;;2.05;0.93;;;;;;;;;;2066326;28;20205;-64
2024/02/25 14:05:36;;;;;;;3.00;0.90;;;;;;;;;;2067282;28;20196;-64
2024/02/25 14:06:37;;;;;;;2.05;0.63;;;;;;;;;;2064696;28;20557;-64
2024/02/25 14:07:39;;;;;;;1.90;0.70;;;;;;;;;;2068537;28;20840;-64
2024/02/25 14:08:40;;;;;;;1.98;0.60;;;;;;;;;;2062314;28;20648;-65
2024/02/25 14:09:42;;;;;;;2.38;0.80;;;;;;;;;;2063399;28;20203;-64
2024/02/25 14:10:43;;;;;;;1.92;0.82;;;;;;;;;;2063641;28;20667;-64
2024/02/25 14:11:45;;;;;;;1.58;0.70;;;;;;;;;;2066788;28;20237;-64
2024/02/25 14:12:47;;;;;;;1.40;0.70;;;;;;;;;;2064661;28;20719;-64
2024/02/25 14:13:48;;;;;;;1.30;0.57;;;;;;;;;;2061055;28;20244;-65
2024/02/25 14:14:50;;;;;;;1.80;0.70;;;;;;;;;;2061145;28;20221;-64
2024/02/25 14:15:51;;;;;;;1.55;0.70;;;;;;;;;;2062535;28;20231;-65
2024/02/25 14:16:54;;;;;;;1.42;0.70;;;;;;;;;;2061329;28;20625;-65
2024/02/25 14:17:55;;;;;;;1.38;0.75;;;;;;;;;;2062373;28;20699;-64
2024/02/25 14:19:03;;;;;;;1.73;0.70;;;;;;;;;;2060212;28;20212;-64
2024/02/25 14:20:08;;;;;;;1.38;0.63;;;;;;;;;;2061362;28;20207;-65
2024/02/25 14:21:09;;;;;;;1.45;0.70;;;;;;;;;;2062438;28;20228;-65
2024/02/25 14:22:11;;;;;;;1.67;0.70;;;;;;;;;;2065299;28;20198;-65
2024/02/25 14:23:12;;;;;;;1.85;0.80;;;;;;;;;;2065007;28;20241;-65
2024/02/25 14:24:13;;;;;;;3.30;1.00;;;;;;;;;;2061185;28;20715;-64
2024/02/25 14:25:15;;;;;;;2.40;1.00;;;;;;;;;;2064215;28;20244;-64
2024/02/25 14:26:16;;;;;;;3.53;0.90;;;;;;;;;;2063796;28;20632;-65
2024/02/25 14:27:18;;;;;;;2.00;0.70;;;;;;;;;;2064319;28;20195;-65
2024/02/25 14:28:19;;;;;;;1.45;0.73;;;;;;;;;;2063222;28;20658;-65
2024/02/25 14:29:20;;;;;;;2.08;0.80;;;;;;;;;;2061561;28;20207;-65
2024/02/25 14:30:24;;;;;;;1.50;0.70;;;;;;;;;;2065176;28;20757;-65
2024/02/25 14:31:25;;;;;;;2.00;0.75;;;;;;;;;;2064472;28;20599;-65
2024/02/25 14:32:27;;;;;;;5.35;1.00;;;;;;;;;;2065535;28;20198;-65
2024/02/25 14:33:28;;;;;;;1.50;0.70;;;;;;;;;;2066148;28;20203;-64
2024/02/25 14:34:31;;;;;;;3.17;1.00;;;;;;;;;;2064721;28;20235;-65
2024/02/25 14:35:35;;;;;;;2.08;0.80;;;;;;;;;;2063792;28;20194;-64
2024/02/25 14:36:36;;;;;;;1.85;0.70;;;;;;;;;;2064746;28;20226;-64
2024/02/25 14:37:38;;;;;;;1.10;0.60;;;;;;;;;;2066802;28;20230;-64
2024/02/25 14:38:39;;;;;;;1.40;0.70;;;;;;;;;;2068456;28;20285;-64
2024/02/25 14:39:41;;;;;;;1.80;0.70;;;;;;;;;;2066957;28;20206;-64